createdAt,value
2022-10-18T00:00:40.482Z,1020.20
2022-10-18T00:01:40.552Z,1020.21
2022-10-18T00:02:40.485Z,1020.23
2022-10-18T00:03:40.488Z,1020.25
2022-10-18T00:04:40.492Z,1020.23
2022-10-18T00:05:40.481Z,1020.24
2022-10-18T00:06:43.420Z,1020.26
2022-10-18T00:07:40.486Z,1020.25
2022-10-18T00:08:40.498Z,1020.25
2022-10-18T00:09:40.485Z,1020.27
2022-10-18T00:10:40.483Z,1020.28
2022-10-18T00:11:40.486Z,1020.33
2022-10-18T00:12:40.585Z,1020.28
2022-10-18T00:13:40.484Z,1020.25
2022-10-18T00:14:40.482Z,1020.31
2022-10-18T00:15:40.491Z,1020.28
2022-10-18T00:16:40.486Z,1020.28
2022-10-18T00:17:40.513Z,1020.27
2022-10-18T00:18:40.486Z,1020.31
2022-10-18T00:19:40.487Z,1020.32
2022-10-18T00:20:40.483Z,1020.30
2022-10-18T00:21:40.589Z,1020.31
2022-10-18T00:22:40.485Z,1020.29
2022-10-18T00:23:40.488Z,1020.32
2022-10-18T00:24:40.487Z,1020.37
2022-10-18T00:25:40.490Z,1020.37
2022-10-18T00:26:40.488Z,1020.36
2022-10-18T00:27:40.493Z,1020.38
2022-10-18T00:28:40.510Z,1020.39
2022-10-18T00:29:40.490Z,1020.34
2022-10-18T00:30:40.546Z,1020.33
2022-10-18T00:31:40.492Z,1020.34
2022-10-18T00:32:40.491Z,1020.33
2022-10-18T00:33:40.511Z,1020.38
2022-10-18T00:34:40.490Z,1020.38
2022-10-18T00:35:40.493Z,1020.42
2022-10-18T00:36:40.496Z,1020.44
2022-10-18T00:37:40.497Z,1020.45
2022-10-18T00:38:40.494Z,1020.48
2022-10-18T00:39:40.587Z,1020.47
2022-10-18T00:40:40.489Z,1020.48
2022-10-18T00:41:40.505Z,1020.52
2022-10-18T00:42:40.503Z,1020.49
2022-10-18T00:43:40.496Z,1020.51
2022-10-18T00:44:40.498Z,1020.48
2022-10-18T00:45:40.496Z,1020.47
2022-10-18T00:46:40.499Z,1020.50
2022-10-18T00:47:40.501Z,1020.50
2022-10-18T00:48:40.498Z,1020.45
2022-10-18T00:49:40.524Z,1020.44
2022-10-18T00:50:40.496Z,1020.45
2022-10-18T00:51:40.502Z,1020.47
2022-10-18T00:52:40.501Z,1020.47
2022-10-18T00:53:40.507Z,1020.47
2022-10-18T00:54:40.503Z,1020.43
2022-10-18T00:55:40.507Z,1020.46
2022-10-18T00:56:40.497Z,1020.45
2022-10-18T00:57:40.598Z,1020.45
2022-10-18T00:58:40.505Z,1020.46
2022-10-18T00:59:40.505Z,1020.42
2022-10-18T01:00:40.501Z,1020.45
2022-10-18T01:01:40.550Z,1020.46
2022-10-18T01:02:40.507Z,1020.42
2022-10-18T01:03:40.505Z,1020.45
2022-10-18T01:04:40.505Z,1020.48
2022-10-18T01:05:40.537Z,1020.45
2022-10-18T01:06:40.504Z,1020.38
2022-10-18T01:07:40.505Z,1020.42
2022-10-18T01:08:40.506Z,1020.42
2022-10-18T01:09:40.511Z,1020.46
2022-10-18T01:10:40.503Z,1020.48
2022-10-18T01:11:40.509Z,1020.48
2022-10-18T01:12:40.505Z,1020.46
2022-10-18T01:13:40.509Z,1020.50
2022-10-18T01:14:40.510Z,1020.48
2022-10-18T01:15:40.507Z,1020.49
2022-10-18T01:16:40.512Z,1020.48
2022-10-18T01:17:40.510Z,1020.53
2022-10-18T01:18:40.506Z,1020.53
2022-10-18T01:19:40.511Z,1020.54
2022-10-18T01:20:40.509Z,1020.52
2022-10-18T01:21:40.530Z,1020.52
2022-10-18T01:22:40.508Z,1020.50
2022-10-18T01:23:40.511Z,1020.50
2022-10-18T01:24:40.515Z,1020.54
2022-10-18T01:25:40.512Z,1020.55
2022-10-18T01:26:40.516Z,1020.57
2022-10-18T01:27:40.518Z,1020.57
2022-10-18T01:28:40.548Z,1020.58
2022-10-18T01:29:40.518Z,1020.50
2022-10-18T01:30:40.516Z,1020.54
2022-10-18T01:31:40.512Z,1020.54
2022-10-18T01:32:40.521Z,1020.52
2022-10-18T01:33:40.516Z,1020.54
2022-10-18T01:34:40.517Z,1020.52
2022-10-18T01:35:40.520Z,1020.49
2022-10-18T01:36:40.524Z,1020.47
2022-10-18T01:37:40.541Z,1020.43
2022-10-18T01:38:40.522Z,1020.38
2022-10-18T01:39:40.520Z,1020.35
2022-10-18T01:40:40.519Z,1020.33
2022-10-18T01:41:40.517Z,1020.33
2022-10-18T01:42:40.531Z,1020.34
2022-10-18T01:43:40.516Z,1020.30
2022-10-18T01:44:40.523Z,1020.32
2022-10-18T01:45:40.525Z,1020.31
2022-10-18T01:46:40.526Z,1020.34
2022-10-18T01:47:40.523Z,1020.28
2022-10-18T01:48:40.523Z,1020.28
2022-10-18T01:49:40.523Z,1020.30
2022-10-18T01:50:40.524Z,1020.31
2022-10-18T01:51:40.520Z,1020.31
2022-10-18T01:52:40.523Z,1020.32
2022-10-18T01:53:40.552Z,1020.29
2022-10-18T01:54:40.528Z,1020.32
2022-10-18T01:55:40.528Z,1020.32
2022-10-18T01:56:40.536Z,1020.29
2022-10-18T01:57:40.525Z,1020.39
2022-10-18T01:58:40.524Z,1020.40
2022-10-18T01:59:40.529Z,1020.40
2022-10-18T02:00:40.524Z,1020.44
2022-10-18T02:01:40.528Z,1020.45
2022-10-18T02:02:40.528Z,1020.45
2022-10-18T02:03:40.526Z,1020.47
2022-10-18T02:04:40.527Z,1020.49
2022-10-18T02:05:40.527Z,1020.44
2022-10-18T02:06:40.528Z,1020.44
2022-10-18T02:07:40.528Z,1020.44
2022-10-18T02:08:40.526Z,1020.41
2022-10-18T02:09:40.556Z,1020.40
2022-10-18T02:10:40.532Z,1020.39
2022-10-18T02:11:40.530Z,1020.38
2022-10-18T02:12:40.531Z,1020.35
2022-10-18T02:13:40.534Z,1020.35
2022-10-18T02:14:40.534Z,1020.32
2022-10-18T02:15:40.534Z,1020.33
2022-10-18T02:16:40.535Z,1020.35
2022-10-18T02:17:40.533Z,1020.31
2022-10-18T02:18:40.534Z,1020.30
2022-10-18T02:19:40.539Z,1020.34
2022-10-18T02:20:40.533Z,1020.32
2022-10-18T02:21:40.538Z,1020.32
2022-10-18T02:22:40.537Z,1020.35
2022-10-18T02:23:40.538Z,1020.34
2022-10-18T02:24:40.540Z,1020.37
2022-10-18T02:25:40.558Z,1020.37
2022-10-18T02:26:40.552Z,1020.39
2022-10-18T02:27:40.541Z,1020.39
2022-10-18T02:28:40.554Z,1020.40
2022-10-18T02:29:40.540Z,1020.43
2022-10-18T02:30:40.537Z,1020.42
2022-10-18T02:31:40.546Z,1020.42
2022-10-18T02:32:40.539Z,1020.48
2022-10-18T02:33:40.541Z,1020.47
2022-10-18T02:34:40.539Z,1020.46
2022-10-18T02:35:40.544Z,1020.50
2022-10-18T02:36:40.545Z,1020.46
2022-10-18T02:37:40.543Z,1020.47
2022-10-18T02:38:40.542Z,1020.53
2022-10-18T02:39:40.553Z,1020.49
2022-10-18T02:40:40.546Z,1020.48
2022-10-18T02:41:40.573Z,1020.55
2022-10-18T02:42:40.542Z,1020.56
2022-10-18T02:43:40.548Z,1020.55
2022-10-18T02:44:40.547Z,1020.55
2022-10-18T02:45:40.550Z,1020.53
2022-10-18T02:46:40.560Z,1020.53
2022-10-18T02:47:40.544Z,1020.56
2022-10-18T02:48:40.559Z,1020.52
2022-10-18T02:49:40.550Z,1020.50
2022-10-18T02:50:40.552Z,1020.50
2022-10-18T02:51:40.555Z,1020.57
2022-10-18T02:52:40.556Z,1020.62
2022-10-18T02:53:40.556Z,1020.63
2022-10-18T02:54:40.553Z,1020.61
2022-10-18T02:55:40.555Z,1020.59
2022-10-18T02:56:40.558Z,1020.58
2022-10-18T02:57:40.579Z,1020.49
2022-10-18T02:58:40.558Z,1020.53
2022-10-18T02:59:40.558Z,1020.50
2022-10-18T03:00:40.557Z,1020.56
2022-10-18T03:01:40.746Z,1020.63
2022-10-18T03:02:40.558Z,1020.66
2022-10-18T03:03:40.558Z,1020.72
2022-10-18T03:04:40.563Z,1020.71
2022-10-18T03:05:40.558Z,1020.65
2022-10-18T03:06:40.560Z,1020.68
2022-10-18T03:07:40.556Z,1020.63
2022-10-18T03:08:40.561Z,1020.59
2022-10-18T03:09:40.557Z,1020.58
2022-10-18T03:10:40.563Z,1020.60
2022-10-18T03:11:40.561Z,1020.66
2022-10-18T03:12:40.561Z,1020.61
2022-10-18T03:13:40.581Z,1020.67
2022-10-18T03:14:40.571Z,1020.66
2022-10-18T03:15:40.567Z,1020.61
2022-10-18T03:16:40.563Z,1020.63
2022-10-18T03:17:40.563Z,1020.68
2022-10-18T03:18:40.565Z,1020.64
2022-10-18T03:19:40.566Z,1020.67
2022-10-18T03:20:40.567Z,1020.69
2022-10-18T03:21:40.567Z,1020.68
2022-10-18T03:22:40.569Z,1020.66
2022-10-18T03:23:40.564Z,1020.70
2022-10-18T03:24:40.572Z,1020.66
2022-10-18T03:25:42.871Z,1020.73
2022-10-18T03:26:40.572Z,1020.76
2022-10-18T03:27:40.569Z,1020.83
2022-10-18T03:28:40.645Z,1020.93
2022-10-18T03:29:40.586Z,1020.92
2022-10-18T03:30:40.572Z,1021.01
2022-10-18T03:31:40.575Z,1021.03
2022-10-18T03:32:40.577Z,1021.01
2022-10-18T03:33:40.574Z,1021.00
2022-10-18T03:34:40.577Z,1020.97
2022-10-18T03:35:40.573Z,1021.00
2022-10-18T03:36:40.576Z,1020.95
2022-10-18T03:37:40.579Z,1020.91
2022-10-18T03:38:40.578Z,1020.88
2022-10-18T03:39:40.583Z,1020.82
2022-10-18T03:40:40.580Z,1020.78
2022-10-18T03:41:40.578Z,1020.75
2022-10-18T03:42:40.583Z,1020.76
2022-10-18T03:43:40.578Z,1020.72
2022-10-18T03:44:40.583Z,1020.70
2022-10-18T03:45:40.605Z,1020.74
2022-10-18T03:46:40.584Z,1020.73
2022-10-18T03:47:40.585Z,1020.69
2022-10-18T03:48:40.582Z,1020.69
2022-10-18T03:49:40.593Z,1020.66
2022-10-18T03:50:40.584Z,1020.67
2022-10-18T03:51:40.586Z,1020.67
2022-10-18T03:52:40.592Z,1020.63
2022-10-18T03:53:40.581Z,1020.68
2022-10-18T03:54:40.586Z,1020.64
2022-10-18T03:55:40.598Z,1020.65
2022-10-18T03:56:40.610Z,1020.68
2022-10-18T03:57:40.588Z,1020.69
2022-10-18T03:58:40.590Z,1020.73
2022-10-18T03:59:40.590Z,1020.73
2022-10-18T04:00:40.596Z,1020.76
2022-10-18T04:01:40.690Z,1020.77
2022-10-18T04:02:40.597Z,1020.83
2022-10-18T04:03:40.591Z,1020.82
2022-10-18T04:04:40.593Z,1020.82
2022-10-18T04:05:40.590Z,1020.84
2022-10-18T04:06:40.594Z,1020.83
2022-10-18T04:07:40.594Z,1020.84
2022-10-18T04:08:40.595Z,1020.84
2022-10-18T04:09:40.597Z,1020.83
2022-10-18T04:10:40.595Z,1020.79
2022-10-18T04:11:40.601Z,1020.80
2022-10-18T04:12:40.597Z,1020.80
2022-10-18T04:13:40.599Z,1020.81
2022-10-18T04:14:40.601Z,1020.82
2022-10-18T04:15:40.603Z,1020.83
2022-10-18T04:16:40.606Z,1020.87
2022-10-18T04:17:40.629Z,1020.87
2022-10-18T04:18:40.602Z,1020.89
2022-10-18T04:19:40.601Z,1020.88
2022-10-18T04:20:40.606Z,1020.91
2022-10-18T04:21:40.614Z,1020.89
2022-10-18T04:22:40.606Z,1020.91
2022-10-18T04:23:40.611Z,1020.95
2022-10-18T04:24:40.610Z,1020.96
2022-10-18T04:25:40.735Z,1020.93
2022-10-18T04:26:40.609Z,1020.86
2022-10-18T04:27:40.607Z,1020.86
2022-10-18T04:28:40.651Z,1020.89
2022-10-18T04:29:40.609Z,1020.89
2022-10-18T04:30:40.615Z,1020.91
2022-10-18T04:31:40.612Z,1020.90
2022-10-18T04:32:40.610Z,1020.87
2022-10-18T04:33:40.615Z,1020.95
2022-10-18T04:34:40.665Z,1020.92
2022-10-18T04:35:40.616Z,1020.92
2022-10-18T04:36:40.611Z,1020.90
2022-10-18T04:37:40.615Z,1020.89
2022-10-18T04:38:40.619Z,1020.94
2022-10-18T04:39:40.614Z,1020.93
2022-10-18T04:40:40.618Z,1020.90
2022-10-18T04:41:40.614Z,1020.89
2022-10-18T04:42:40.616Z,1020.86
2022-10-18T04:43:40.673Z,1020.88
2022-10-18T04:44:40.616Z,1020.91
2022-10-18T04:45:40.623Z,1020.92
2022-10-18T04:46:40.622Z,1020.95
2022-10-18T04:47:40.617Z,1020.86
2022-10-18T04:48:40.622Z,1020.82
2022-10-18T04:49:40.630Z,1020.80
2022-10-18T04:50:40.640Z,1020.77
2022-10-18T04:51:40.622Z,1020.83
2022-10-18T04:52:40.675Z,1020.80
2022-10-18T04:53:40.625Z,1020.85
2022-10-18T04:54:40.623Z,1020.87
2022-10-18T04:55:40.627Z,1020.83
2022-10-18T04:56:40.624Z,1020.86
2022-10-18T04:57:40.628Z,1020.89
2022-10-18T04:58:40.629Z,1020.86
2022-10-18T04:59:40.626Z,1020.84
2022-10-18T05:00:40.656Z,1020.79
2022-10-18T05:01:40.786Z,1020.76
2022-10-18T05:02:40.628Z,1020.77
2022-10-18T05:03:40.629Z,1020.73
2022-10-18T05:04:40.631Z,1020.71
2022-10-18T05:06:00.256Z,1020.69
2022-10-18T05:06:40.650Z,1020.71
2022-10-18T05:07:40.636Z,1020.74
2022-10-18T05:08:40.633Z,1020.78
2022-10-18T05:09:40.631Z,1020.83
2022-10-18T05:10:40.636Z,1020.86
2022-10-18T05:11:40.636Z,1020.88
2022-10-18T05:12:40.636Z,1020.90
2022-10-18T05:13:40.638Z,1020.89
2022-10-18T05:14:40.639Z,1020.89
2022-10-18T05:15:40.638Z,1020.88
2022-10-18T05:16:40.637Z,1020.79
2022-10-18T05:17:40.638Z,1020.77
2022-10-18T05:18:40.640Z,1020.76
2022-10-18T05:19:40.636Z,1020.75
2022-10-18T05:20:40.641Z,1020.74
2022-10-18T05:21:40.641Z,1020.69
2022-10-18T05:22:40.664Z,1020.73
2022-10-18T05:23:40.638Z,1020.70
2022-10-18T05:24:40.645Z,1020.70
2022-10-18T05:25:40.641Z,1020.72
2022-10-18T05:26:40.645Z,1020.70
2022-10-18T05:27:40.644Z,1020.66
2022-10-18T05:28:41.428Z,1020.67
2022-10-18T05:29:40.653Z,1020.71
2022-10-18T05:30:40.646Z,1020.70
2022-10-18T05:31:40.642Z,1020.73
2022-10-18T05:32:40.645Z,1020.73
2022-10-18T05:33:40.649Z,1020.76
2022-10-18T05:34:40.650Z,1020.75
2022-10-18T05:35:40.648Z,1020.75
2022-10-18T05:36:40.648Z,1020.77
2022-10-18T05:37:40.652Z,1020.74
2022-10-18T05:38:40.675Z,1020.79
2022-10-18T05:39:40.649Z,1020.79
2022-10-18T05:40:40.649Z,1020.82
2022-10-18T05:41:40.654Z,1020.80
2022-10-18T05:42:40.656Z,1020.81
2022-10-18T05:43:40.649Z,1020.74
2022-10-18T05:44:40.651Z,1020.75
2022-10-18T05:45:40.654Z,1020.72
2022-10-18T05:46:40.659Z,1020.78
2022-10-18T05:47:40.670Z,1020.71
2022-10-18T05:48:40.654Z,1020.76
2022-10-18T05:49:40.656Z,1020.75
2022-10-18T05:50:40.656Z,1020.75
2022-10-18T05:51:40.656Z,1020.72
2022-10-18T05:52:40.658Z,1020.71
2022-10-18T05:53:40.661Z,1020.69
2022-10-18T05:54:40.684Z,1020.68
2022-10-18T05:55:40.665Z,1020.71
2022-10-18T05:56:40.672Z,1020.70
2022-10-18T05:57:40.674Z,1020.75
2022-10-18T05:58:40.666Z,1020.76
2022-10-18T05:59:40.668Z,1020.77
2022-10-18T06:00:40.670Z,1020.78
2022-10-18T06:01:40.665Z,1020.81
2022-10-18T06:02:40.754Z,1020.85
2022-10-18T06:03:40.667Z,1020.88
2022-10-18T06:04:40.667Z,1020.90
2022-10-18T06:05:40.669Z,1020.86
2022-10-18T06:06:40.665Z,1020.86
2022-10-18T06:07:40.664Z,1020.85
2022-10-18T06:08:40.666Z,1020.86
2022-10-18T06:09:40.669Z,1020.84
2022-10-18T06:10:40.699Z,1020.94
2022-10-18T06:11:40.668Z,1020.99
2022-10-18T06:12:40.668Z,1020.99
2022-10-18T06:13:40.677Z,1021.00
2022-10-18T06:14:40.666Z,1020.98
2022-10-18T06:15:40.672Z,1020.97
2022-10-18T06:16:40.673Z,1020.95
2022-10-18T06:17:40.675Z,1020.86
2022-10-18T06:18:40.669Z,1020.86
2022-10-18T06:19:40.679Z,1020.81
2022-10-18T06:20:40.679Z,1020.78
2022-10-18T06:21:40.669Z,1020.85
2022-10-18T06:22:40.675Z,1020.86
2022-10-18T06:23:40.672Z,1020.87
2022-10-18T06:24:40.673Z,1020.89
2022-10-18T06:25:40.680Z,1020.87
2022-10-18T06:26:40.698Z,1020.87
2022-10-18T06:27:40.682Z,1020.90
2022-10-18T06:28:40.725Z,1020.88
2022-10-18T06:29:40.679Z,1020.84
2022-10-18T06:30:40.682Z,1020.82
2022-10-18T06:31:40.687Z,1020.75
2022-10-18T06:32:40.682Z,1020.73
2022-10-18T06:33:40.674Z,1020.71
2022-10-18T06:34:40.680Z,1020.70
2022-10-18T06:35:40.683Z,1020.69
2022-10-18T06:36:40.682Z,1020.62
2022-10-18T06:37:40.681Z,1020.60
2022-10-18T06:38:40.682Z,1020.65
2022-10-18T06:39:40.685Z,1020.74
2022-10-18T06:40:40.689Z,1020.69
2022-10-18T06:41:40.685Z,1020.70
2022-10-18T06:42:40.782Z,1020.72
2022-10-18T06:43:40.682Z,1020.73
2022-10-18T06:44:40.681Z,1020.73
2022-10-18T06:45:40.687Z,1020.79
2022-10-18T06:46:40.687Z,1020.77
2022-10-18T06:47:40.693Z,1020.80
2022-10-18T06:48:40.692Z,1020.77
2022-10-18T06:49:40.687Z,1020.80
2022-10-18T06:50:40.718Z,1020.76
2022-10-18T06:51:40.690Z,1020.75
2022-10-18T06:52:40.689Z,1020.74
2022-10-18T06:53:44.334Z,1020.73
2022-10-18T06:54:40.690Z,1020.72
2022-10-18T06:55:40.691Z,1020.74
2022-10-18T06:56:40.690Z,1020.74
2022-10-18T06:57:40.691Z,1020.78
2022-10-18T06:58:40.713Z,1020.77
2022-10-18T06:59:40.695Z,1020.80
2022-10-18T07:00:40.695Z,1020.78
2022-10-18T07:01:40.786Z,1020.82
2022-10-18T07:02:40.694Z,1020.86
2022-10-18T07:03:40.694Z,1020.83
2022-10-18T07:04:40.699Z,1020.81
2022-10-18T07:05:40.706Z,1020.86
2022-10-18T07:06:40.698Z,1020.88
2022-10-18T07:07:40.696Z,1020.87
2022-10-18T07:08:40.702Z,1020.89
2022-10-18T07:09:40.698Z,1020.87
2022-10-18T07:10:40.698Z,1020.85
2022-10-18T07:11:40.698Z,1020.81
2022-10-18T07:12:40.703Z,1020.78
2022-10-18T07:13:40.697Z,1020.81
2022-10-18T07:14:40.725Z,1020.81
2022-10-18T07:15:40.700Z,1020.81
2022-10-18T07:16:40.698Z,1020.84
2022-10-18T07:17:40.702Z,1020.81
2022-10-18T07:18:40.698Z,1020.85
2022-10-18T07:19:40.702Z,1020.90
2022-10-18T07:20:40.702Z,1020.97
2022-10-18T07:21:40.706Z,1020.97
2022-10-18T07:22:40.705Z,1021.00
2022-10-18T07:23:40.704Z,1021.00
2022-10-18T07:24:40.701Z,1021.01
2022-10-18T07:25:40.713Z,1021.06
2022-10-18T07:26:40.716Z,1021.09
2022-10-18T07:27:40.710Z,1021.12
2022-10-18T07:28:40.742Z,1021.14
2022-10-18T07:29:40.705Z,1021.15
2022-10-18T07:30:40.729Z,1021.15
2022-10-18T07:31:40.715Z,1021.19
2022-10-18T07:32:40.706Z,1021.21
2022-10-18T07:33:40.706Z,1021.20
2022-10-18T07:34:40.709Z,1021.26
2022-10-18T07:35:40.708Z,1021.26
2022-10-18T07:36:40.708Z,1021.28
2022-10-18T07:37:40.714Z,1021.33
2022-10-18T07:38:40.708Z,1021.32
2022-10-18T07:39:40.712Z,1021.33
2022-10-18T07:40:40.710Z,1021.34
2022-10-18T07:41:40.714Z,1021.36
2022-10-18T07:42:40.713Z,1021.38
2022-10-18T07:43:40.711Z,1021.35
2022-10-18T07:44:40.715Z,1021.39
2022-10-18T07:45:40.720Z,1021.39
2022-10-18T07:46:40.739Z,1021.46
2022-10-18T07:47:41.315Z,1021.45
2022-10-18T07:48:40.721Z,1021.48
2022-10-18T07:49:40.719Z,1021.49
2022-10-18T07:50:40.718Z,1021.47
2022-10-18T07:51:40.720Z,1021.53
2022-10-18T07:52:40.721Z,1021.52
2022-10-18T07:53:40.714Z,1021.51
2022-10-18T07:54:40.797Z,1021.52
2022-10-18T07:55:40.717Z,1021.53
2022-10-18T07:56:40.725Z,1021.53
2022-10-18T07:57:40.717Z,1021.54
2022-10-18T07:58:40.717Z,1021.54
2022-10-18T07:59:40.720Z,1021.57
2022-10-18T08:00:40.717Z,1021.55
2022-10-18T08:01:40.822Z,1021.57
2022-10-18T08:02:40.741Z,1021.58
2022-10-18T08:03:40.723Z,1021.56
2022-10-18T08:04:40.722Z,1021.56
2022-10-18T08:05:40.724Z,1021.54
2022-10-18T08:06:40.721Z,1021.51
2022-10-18T08:07:40.725Z,1021.49
2022-10-18T08:08:40.723Z,1021.48
2022-10-18T08:09:40.727Z,1021.51
2022-10-18T08:10:40.728Z,1021.49
2022-10-18T08:11:40.726Z,1021.50
2022-10-18T08:12:40.727Z,1021.44
2022-10-18T08:13:40.734Z,1021.47
2022-10-18T08:14:40.728Z,1021.45
2022-10-18T08:15:40.728Z,1021.43
2022-10-18T08:16:40.729Z,1021.41
2022-10-18T08:17:40.730Z,1021.47
2022-10-18T08:18:40.752Z,1021.41
2022-10-18T08:19:52.707Z,1021.41
2022-10-18T08:20:40.731Z,1021.37
2022-10-18T08:21:40.733Z,1021.38
2022-10-18T08:22:40.730Z,1021.37
2022-10-18T08:23:40.735Z,1021.32
2022-10-18T08:24:40.733Z,1021.31
2022-10-18T08:25:40.743Z,1021.30
2022-10-18T08:26:40.740Z,1021.29
2022-10-18T08:27:40.739Z,1021.29
2022-10-18T08:28:43.702Z,1021.26
2022-10-18T08:29:40.818Z,1021.25
2022-10-18T08:30:40.736Z,1021.26
2022-10-18T08:31:40.734Z,1021.23
2022-10-18T08:32:40.741Z,1021.23
2022-10-18T08:33:40.739Z,1021.23
2022-10-18T08:34:40.758Z,1021.24
2022-10-18T08:35:40.750Z,1021.25
2022-10-18T08:36:40.743Z,1021.28
2022-10-18T08:37:40.744Z,1021.24
2022-10-18T08:38:40.742Z,1021.25
2022-10-18T08:39:40.741Z,1021.25
2022-10-18T08:40:40.739Z,1021.25
2022-10-18T08:41:40.744Z,1021.22
2022-10-18T08:42:40.743Z,1021.24
2022-10-18T08:43:40.747Z,1021.26
2022-10-18T08:44:40.744Z,1021.26
2022-10-18T08:45:43.017Z,1021.27
2022-10-18T08:46:40.742Z,1021.25
2022-10-18T08:47:40.745Z,1021.26
2022-10-18T08:48:40.749Z,1021.24
2022-10-18T08:49:45.542Z,1021.24
2022-10-18T08:50:40.772Z,1021.28
2022-10-18T08:51:40.750Z,1021.25
2022-10-18T08:53:40.752Z,1021.27
2022-10-18T08:54:40.747Z,1021.29
2022-10-18T08:55:40.751Z,1021.32
2022-10-18T08:56:40.750Z,1021.31
2022-10-18T08:57:40.749Z,1021.33
2022-10-18T08:58:40.750Z,1021.35
2022-10-18T08:59:40.750Z,1021.33
2022-10-18T09:00:40.747Z,1021.27
2022-10-18T09:01:40.811Z,1021.30
2022-10-18T09:02:40.755Z,1021.26
2022-10-18T09:03:40.837Z,1021.25
2022-10-18T09:04:40.758Z,1021.28
2022-10-18T09:05:40.760Z,1021.22
2022-10-18T09:06:40.786Z,1021.21
2022-10-18T09:07:40.754Z,1021.21
2022-10-18T09:08:40.759Z,1021.27
2022-10-18T09:09:40.759Z,1021.26
2022-10-18T09:10:40.758Z,1021.21
2022-10-18T09:11:40.760Z,1021.19
2022-10-18T09:12:40.767Z,1021.20
2022-10-18T09:13:40.759Z,1021.15
2022-10-18T09:14:40.762Z,1021.17
2022-10-18T09:15:40.756Z,1021.21
2022-10-18T09:16:40.759Z,1021.22
2022-10-18T09:17:40.763Z,1021.19
2022-10-18T09:18:40.760Z,1021.26
2022-10-18T09:19:40.762Z,1021.23
2022-10-18T09:20:40.761Z,1021.24
2022-10-18T09:21:40.781Z,1021.29
2022-10-18T09:22:40.782Z,1021.27
2022-10-18T09:23:40.765Z,1021.27
2022-10-18T09:24:40.763Z,1021.32
2022-10-18T09:25:40.769Z,1021.31
2022-10-18T09:26:40.764Z,1021.29
2022-10-18T09:27:40.762Z,1021.29
2022-10-18T09:28:40.801Z,1021.30
2022-10-18T09:29:40.771Z,1021.34
2022-10-18T09:30:40.761Z,1021.34
2022-10-18T09:31:40.768Z,1021.32
2022-10-18T09:32:40.771Z,1021.32
2022-10-18T09:33:40.765Z,1021.28
2022-10-18T09:34:40.768Z,1021.27
2022-10-18T09:35:40.771Z,1021.29
2022-10-18T09:36:40.767Z,1021.26
2022-10-18T09:37:40.770Z,1021.25
2022-10-18T09:38:40.876Z,1021.23
2022-10-18T09:39:40.768Z,1021.22
2022-10-18T09:40:40.769Z,1021.24
2022-10-18T09:41:40.774Z,1021.23
2022-10-18T09:42:40.768Z,1021.20
2022-10-18T09:43:40.782Z,1021.23
2022-10-18T09:44:40.770Z,1021.22
2022-10-18T09:45:40.768Z,1021.20
2022-10-18T09:46:40.776Z,1021.21
2022-10-18T09:47:40.781Z,1021.25
2022-10-18T09:48:40.774Z,1021.25
2022-10-18T09:49:40.774Z,1021.25
2022-10-18T09:50:40.772Z,1021.27
2022-10-18T09:51:40.772Z,1021.30
2022-10-18T09:52:40.772Z,1021.29
2022-10-18T09:53:40.777Z,1021.31
2022-10-18T09:54:40.803Z,1021.26
2022-10-18T09:55:40.772Z,1021.27
2022-10-18T09:56:41.993Z,1021.25
2022-10-18T09:57:40.775Z,1021.23
2022-10-18T09:58:40.779Z,1021.24
2022-10-18T09:59:40.774Z,1021.25
2022-10-18T10:00:40.778Z,1021.28
2022-10-18T10:01:40.779Z,1021.24
2022-10-18T10:02:40.802Z,1021.29
2022-10-18T10:03:40.781Z,1021.31
2022-10-18T10:04:40.774Z,1021.35
2022-10-18T10:05:40.782Z,1021.34
2022-10-18T10:06:40.779Z,1021.35
2022-10-18T10:07:41.261Z,1021.37
2022-10-18T10:08:40.779Z,1021.40
2022-10-18T10:09:40.782Z,1021.38
2022-10-18T10:10:40.809Z,1021.37
2022-10-18T10:11:40.780Z,1021.34
2022-10-18T10:12:40.776Z,1021.36
2022-10-18T10:13:40.781Z,1021.34
2022-10-18T10:14:40.790Z,1021.38
2022-10-18T10:15:42.565Z,1021.35
2022-10-18T10:16:40.784Z,1021.38
2022-10-18T10:17:40.778Z,1021.37
2022-10-18T10:18:40.781Z,1021.42
2022-10-18T10:19:40.785Z,1021.37
2022-10-18T10:20:40.786Z,1021.37
2022-10-18T10:21:40.780Z,1021.35
2022-10-18T10:22:40.781Z,1021.33
2022-10-18T10:23:40.786Z,1021.33
2022-10-18T10:24:40.791Z,1021.29
2022-10-18T10:25:40.782Z,1021.31
2022-10-18T10:26:40.814Z,1021.34
2022-10-18T10:27:40.786Z,1021.31
2022-10-18T10:28:40.830Z,1021.31
2022-10-18T10:29:44.718Z,1021.28
2022-10-18T10:30:40.787Z,1021.32
2022-10-18T10:31:40.786Z,1021.32
2022-10-18T10:32:40.788Z,1021.32
2022-10-18T10:33:40.789Z,1021.28
2022-10-18T10:34:42.439Z,1021.32
2022-10-18T10:35:56.089Z,1021.35
2022-10-18T10:36:40.788Z,1021.32
2022-10-18T10:37:40.788Z,1021.32
2022-10-18T10:38:40.793Z,1021.30
2022-10-18T10:39:42.860Z,1021.29
2022-10-18T10:40:40.791Z,1021.29
2022-10-18T10:41:40.787Z,1021.25
2022-10-18T10:42:40.890Z,1021.26
2022-10-18T10:43:40.815Z,1021.18
2022-10-18T10:44:40.792Z,1021.16
2022-10-18T10:45:40.792Z,1021.19
2022-10-18T10:46:40.793Z,1021.14
2022-10-18T10:47:40.794Z,1021.14
2022-10-18T10:48:40.795Z,1021.13
2022-10-18T10:49:41.449Z,1021.12
2022-10-18T10:50:40.794Z,1021.15
2022-10-18T10:51:40.818Z,1021.10
2022-10-18T10:52:40.923Z,1021.13
2022-10-18T10:53:40.790Z,1021.11
2022-10-18T10:54:40.793Z,1021.09
2022-10-18T10:55:40.798Z,1021.05
2022-10-18T10:56:40.795Z,1021.04
2022-10-18T10:57:40.800Z,1021.04
2022-10-18T10:58:40.815Z,1021.02
2022-10-18T11:00:40.793Z,1020.99
2022-10-18T11:01:40.797Z,1021.03
2022-10-18T11:02:40.846Z,1020.96
2022-10-18T11:03:40.863Z,1021.02
2022-10-18T11:04:40.798Z,1021.02
2022-10-18T11:05:40.797Z,1020.96
2022-10-18T11:06:40.792Z,1020.94
2022-10-18T11:07:40.803Z,1020.90
2022-10-18T11:08:40.838Z,1020.89
2022-10-18T11:09:40.798Z,1020.89
2022-10-18T11:10:40.806Z,1020.86
2022-10-18T11:11:40.796Z,1020.85
2022-10-18T11:12:40.803Z,1020.85
2022-10-18T11:13:40.797Z,1020.79
2022-10-18T11:14:40.834Z,1020.73
2022-10-18T11:15:40.797Z,1020.68
2022-10-18T11:16:40.802Z,1020.66
2022-10-18T11:17:40.804Z,1020.69
2022-10-18T11:18:40.802Z,1020.69
2022-10-18T11:19:40.801Z,1020.74
2022-10-18T11:20:40.798Z,1020.74
2022-10-18T11:21:40.798Z,1020.74
2022-10-18T11:22:40.806Z,1020.77
2022-10-18T11:23:40.802Z,1020.77
2022-10-18T11:24:40.801Z,1020.82
2022-10-18T11:25:40.805Z,1020.80
2022-10-18T11:26:42.142Z,1020.82
2022-10-18T11:27:40.806Z,1020.84
2022-10-18T11:28:40.839Z,1020.79
2022-10-18T11:29:40.802Z,1020.80
2022-10-18T11:30:40.820Z,1020.82
2022-10-18T11:31:40.801Z,1020.80
2022-10-18T11:32:40.810Z,1020.81
2022-10-18T11:34:07.171Z,1020.76
2022-10-18T11:34:40.806Z,1020.76
2022-10-18T11:35:40.803Z,1020.80
2022-10-18T11:36:46.275Z,1020.75
2022-10-18T11:37:41.202Z,1020.77
2022-10-18T11:38:40.812Z,1020.77
2022-10-18T11:39:40.805Z,1020.78
2022-10-18T11:40:40.809Z,1020.76
2022-10-18T11:41:40.807Z,1020.77
2022-10-18T11:42:40.806Z,1020.79
2022-10-18T11:44:01.283Z,1020.78
2022-10-18T11:44:40.810Z,1020.77
2022-10-18T11:45:40.808Z,1020.75
2022-10-18T11:46:40.834Z,1020.73
2022-10-18T11:47:40.804Z,1020.75
2022-10-18T11:48:40.820Z,1020.70
2022-10-18T11:49:40.810Z,1020.73
2022-10-18T11:50:40.808Z,1020.70
2022-10-18T11:52:03.168Z,1020.71
2022-10-18T11:52:40.809Z,1020.68
2022-10-18T11:53:40.809Z,1020.71
2022-10-18T11:55:40.806Z,1020.72
2022-10-18T11:56:40.813Z,1020.71
2022-10-18T11:57:40.805Z,1020.70
2022-10-18T11:58:40.808Z,1020.67
2022-10-18T11:59:40.812Z,1020.67
2022-10-18T12:00:40.814Z,1020.64
2022-10-18T12:01:40.810Z,1020.68
2022-10-18T12:02:40.872Z,1020.65
2022-10-18T12:03:40.812Z,1020.66
2022-10-18T12:04:49.082Z,1020.68
2022-10-18T12:05:40.810Z,1020.66
2022-10-18T12:06:40.816Z,1020.68
2022-10-18T12:07:40.810Z,1020.64
2022-10-18T12:08:40.818Z,1020.66